Time;durP1;ratioP1;P1;durP2;ratioP2;P2;SDS_P1;SDS_P2;PMS_P1;PMS_P2;Temp;Humidity;BMP_temperature;BMP_pressure;BME280_temperature;BME280_humidity;BME280_pressure;Samples;Min_cycle;Max_cycle;Signal;HPM_P1;HPM_P2
2022/06/05 00:01:27;;;;;;;;;;;;;;;-140.72;100.00;52384.78;6227394;23;19983;-67
2022/06/05 00:03:53;;;;;;;;;;;;;;;-140.72;100.00;52415.22;6227756;23;19935;-66
2022/06/05 00:06:36;;;;;;;;;;;;;;;-140.72;100.00;52394.91;6227251;23;19992;-67
2022/06/05 00:09:07;;;;;;;;;;;;;;;-140.72;100.00;52409.13;6226552;23;19935;-66
2022/06/05 00:11:46;;;;;;;;;;;;;;;-140.72;100.00;52382.75;6225150;23;19912;-66
2022/06/05 00:14:11;;;;;;;;;;;;;;;-140.72;100.00;52388.84;6226296;23;19936;-66
2022/06/05 00:16:36;;;;;;;;;;;;;;;-140.72;100.00;52394.91;6224214;23;20376;-67
2022/06/05 00:19:03;;;;;;;;;;;;;;;-140.72;100.00;52372.59;6227160;23;19935;-67
2022/06/05 00:21:28;;;;;;;;;;;;;;;-140.72;100.00;52415.22;6224411;23;19934;-67
2022/06/05 00:23:53;;;;;;;;;;;;;;;-140.72;100.00;52423.31;6225499;23;19912;-67
2022/06/05 00:26:19;;;;;;;;;;;;;;;-140.72;100.00;52403.03;6226051;23;19922;-67
2022/06/05 00:28:47;;;;;;;;;;;;;;;-140.72;100.00;52390.84;6226605;23;19916;-67
2022/06/05 00:31:15;;;;;;;;;;;;;;;-140.72;100.00;52411.16;6226247;23;20333;-66
2022/06/05 00:33:41;;;;;;;;;;;;;;;-140.72;100.00;52443.63;6225816;23;19916;-67
2022/06/05 00:36:06;;;;;;;;;;;;;;;-140.72;100.00;52388.84;6225888;23;19958;-67
2022/06/05 00:38:37;;;;;;;;;;;;;;;-140.72;100.00;52429.41;6225234;23;20246;-68
2022/06/05 00:41:17;;;;;;;;;;;;;;;-140.72;100.00;52380.72;6225665;23;19935;-68
2022/06/05 00:43:43;;;;;;;;;;;;;;;-140.72;100.00;52417.25;6222164;23;19912;-68
2022/06/05 00:46:09;;;;;;;;;;;;;;;-140.72;100.00;52427.38;6224616;23;19915;-66
2022/06/05 00:48:34;;;;;;;;;;;;;;;-140.72;100.00;52415.22;6224936;23;19907;-67
2022/06/05 00:50:59;;;;;;;;;;;;;;;-140.72;100.00;52427.38;6229091;23;19912;-66
2022/06/05 00:53:24;;;;;;;;;;;;;;;-140.72;100.00;52435.50;6227785;23;19908;-67
2022/06/05 00:55:51;;;;;;;;;;;;;;;-140.72;100.00;52392.88;6226980;23;19920;-66
2022/06/05 00:58:17;;;;;;;;;;;;;;;-140.72;100.00;52429.41;6227380;23;19912;-67
2022/06/05 01:00:44;;;;;;;;;;;;;;;-140.72;100.00;52411.16;6227521;23;19908;-66
2022/06/05 01:03:10;;;;;;;;;;;;;;;-140.72;100.00;52405.06;6226891;23;19908;-66
2022/06/05 01:05:35;;;;;;;;;;;;;;;-140.72;100.00;52413.19;6227157;23;19919;-66
2022/06/05 01:08:01;;;;;;;;;;;;;;;-140.72;100.00;52403.03;6227627;23;19908;-67
2022/06/05 01:10:30;;;;;;;;;;;;;;;-140.72;100.00;52425.34;6228592;23;19930;-67
2022/06/05 01:13:00;;;;;;;;;;;;;;;-140.72;100.00;52421.28;6226135;23;19939;-67
2022/06/05 01:15:29;;;;;;;;;;;;;;;-140.72;100.00;52425.34;6228281;23;19908;-67
2022/06/05 01:18:15;;;;;;;;;;;;;;;-140.72;100.00;52405.06;6224556;23;19908;-66
2022/06/05 01:20:59;;;;;;;;;;;;;;;-140.72;100.00;52425.34;6227468;23;19987;-65
2022/06/05 01:23:33;;;;;;;;;;;;;;;-140.72;100.00;52429.41;6226562;23;19911;-66
2022/06/05 01:26:14;;;;;;;;;;;;;;;-140.72;100.00;52392.88;6228025;23;20296;-67
2022/06/05 01:28:46;;;;;;;;;;;;;;;-140.72;100.00;52433.47;6228316;23;19908;-67
2022/06/05 01:31:18;;;;;;;;;;;;;;;-140.72;100.00;52394.91;6228437;23;19911;-67
2022/06/05 01:33:46;;;;;;;;;;;;;;;-140.72;100.00;52427.38;6226330;23;20284;-66
2022/06/05 01:39:24;;;;;;;;;;;;;;;-140.72;100.00;52427.38;6228283;23;20364;-67
2022/06/05 01:44:56;;;;;;;;;;;;;;;-140.72;100.00;52423.31;6227789;23;19915;-67
2022/06/05 01:47:24;;;;;;;;;;;;;;;-140.72;100.00;52394.91;6229324;23;19939;-67
2022/06/05 01:49:49;;;;;;;;;;;;;;;-140.72;100.00;52409.13;6230255;23;19908;-67
2022/06/05 01:52:18;;;;;;;;;;;;;;;-140.72;100.00;52455.78;6228303;23;20318;-67
2022/06/05 01:54:52;;;;;;;;;;;;;;;-140.72;100.00;52427.38;6227986;23;19932;-67
2022/06/05 01:57:18;;;;;;;;;;;;;;;-140.72;100.00;52425.34;6229696;23;19908;-67
2022/06/05 01:59:46;;;;;;;;;;;;;;;-140.72;100.00;52419.28;6227308;23;20318;-67
2022/06/05 02:02:14;;;;;;;;;;;;;;;-140.72;100.00;52413.19;6228987;23;20025;-67
2022/06/05 02:04:46;;;;;;;;;;;;;;;-140.72;100.00;52417.25;6229733;23;19914;-67
2022/06/05 02:07:33;;;;;;;;;;;;;;;-140.72;100.00;52388.84;6229490;23;19908;-67
2022/06/05 02:09:58;;;;;;;;;;;;;;;-140.72;100.00;52403.03;6226387;23;20049;-67
2022/06/05 02:15:28;;;;;;;;;;;;;;;-140.72;100.00;52425.34;6226966;23;20341;-67
2022/06/05 02:20:56;;;;;;;;;;;;;;;-140.72;100.00;52443.63;6226614;23;19918;-67
2022/06/05 02:23:23;;;;;;;;;;;;;;;-140.72;100.00;52437.53;6226509;23;19924;-67
2022/06/05 02:25:49;;;;;;;;;;;;;;;-140.72;100.00;52453.75;6228376;23;19908;-67
2022/06/05 02:28:16;;;;;;;;;;;;;;;-140.72;100.00;52478.13;6228854;23;20348;-68
2022/06/05 02:30:44;;;;;;;;;;;;;;;-140.72;100.00;52417.25;6227247;23;20237;-67
2022/06/05 02:33:31;;;;;;;;;;;;;;;-140.72;100.00;52439.56;6229181;23;19915;-67
2022/06/05 02:35:59;;;;;;;;;;;;;;;-140.72;100.00;52431.44;6226614;23;19982;-67
2022/06/05 02:38:32;;;;;;;;;;;;;;;-140.72;100.00;52449.72;6228818;23;19932;-66
2022/06/05 02:41:15;;;;;;;;;;;;;;;-140.72;100.00;52417.25;6229305;23;19908;-67
2022/06/05 02:46:48;;;;;;;;;;;;;;;-140.72;100.00;52437.53;6228722;23;19914;-66
2022/06/05 02:52:16;;;;;;;;;;;;;;;-140.72;100.00;52417.25;6228185;23;19965;-66
2022/06/05 02:54:45;;;;;;;;;;;;;;;-140.72;100.00;52384.78;6227608;23;19916;-66
2022/06/05 02:57:13;;;;;;;;;;;;;;;-140.72;100.00;52392.88;6225601;23;20273;-67
2022/06/05 02:59:38;;;;;;;;;;;;;;;-140.72;100.00;52374.63;6227910;23;19907;-67
2022/06/05 03:04:47;;;;;;;;;;;;;;;-140.72;100.00;52431.44;6231369;23;19914;-66
2022/06/05 03:07:13;;;;;;;;;;;;;;;-140.72;100.00;52394.91;6229867;23;19927;-67
2022/06/05 03:09:38;;;;;;;;;;;;;;;-140.72;100.00;52401.00;6230381;23;19908;-67
2022/06/05 03:12:03;;;;;;;;;;;;;;;-140.72;100.00;52376.66;6230137;23;19956;-66
2022/06/05 03:14:28;;;;;;;;;;;;;;;-140.72;100.00;52388.84;6229921;23;19908;-67
2022/06/05 03:16:54;;;;;;;;;;;;;;;-140.72;100.00;52401.00;6229114;23;20306;-67
2022/06/05 03:19:19;;;;;;;;;;;;;;;-140.72;100.00;52423.31;6230479;23;19928;-67
2022/06/05 03:21:45;;;;;;;;;;;;;;;-140.72;100.00;52407.09;6229685;23;19919;-67
2022/06/05 03:24:10;;;;;;;;;;;;;;;-140.72;100.00;52394.91;6227238;23;20276;-67
2022/06/05 03:26:35;;;;;;;;;;;;;;;-140.72;100.00;52388.84;6228073;23;19908;-67
2022/06/05 03:29:00;;;;;;;;;;;;;;;-140.72;100.00;52401.00;6229743;23;19958;-67
2022/06/05 03:31:26;;;;;;;;;;;;;;;-140.72;100.00;52427.38;6230115;23;19968;-67
2022/06/05 03:33:51;;;;;;;;;;;;;;;-140.72;100.00;52376.66;6229351;23;19950;-67
2022/06/05 03:36:17;;;;;;;;;;;;;;;-140.72;100.00;52423.31;6229890;23;19931;-67
2022/06/05 03:38:43;;;;;;;;;;;;;;;-140.72;100.00;52390.84;6230232;23;19908;-67
2022/06/05 03:41:08;;;;;;;;;;;;;;;-140.72;100.00;52401.00;6227934;23;19908;-67
2022/06/05 03:43:34;;;;;;;;;;;;;;;-140.72;100.00;52398.97;6229245;23;19908;-66
2022/06/05 03:46:10;;;;;;;;;;;;;;;-140.72;100.00;52411.16;6228255;23;19931;-67
2022/06/05 03:48:35;;;;;;;;;;;;;;;-140.72;100.00;52417.25;6220316;23;19981;-67
2022/06/05 03:51:19;;;;;;;;;;;;;;;-140.72;100.00;52407.09;6228373;23;19916;-66
2022/06/05 03:53:45;;;;;;;;;;;;;;;-140.72;100.00;52398.97;6229300;23;19907;-66
2022/06/05 03:56:12;;;;;;;;;;;;;;;-140.72;100.00;52429.41;6229211;23;20132;-67
2022/06/05 03:58:37;;;;;;;;;;;;;;;-140.72;100.00;52431.44;6228786;23;19930;-67
2022/06/05 04:01:03;;;;;;;;;;;;;;;-140.72;100.00;52419.28;6229337;23;19912;-67
2022/06/05 04:03:28;;;;;;;;;;;;;;;-140.72;100.00;52407.09;6228571;23;19908;-67
2022/06/05 04:05:53;;;;;;;;;;;;;;;-140.72;100.00;52415.22;6228743;23;19915;-67
2022/06/05 04:08:19;;;;;;;;;;;;;;;-140.72;100.00;52423.31;6229052;23;19908;-69
2022/06/05 04:10:44;;;;;;;;;;;;;;;-140.72;100.00;52411.16;6228421;23;19919;-65
2022/06/05 04:13:09;;;;;;;;;;;;;;;-140.72;100.00;52409.13;6230074;23;19908;-65
2022/06/05 04:15:39;;;;;;;;;;;;;;;-140.72;100.00;52388.84;6229089;23;19951;-65
2022/06/05 04:18:04;;;;;;;;;;;;;;;-140.72;100.00;52415.22;6229052;23;19915;-66
2022/06/05 04:20:29;;;;;;;;;;;;;;;-140.72;100.00;52451.72;6228547;23;19908;-66
2022/06/05 04:22:54;;;;;;;;;;;;;;;-140.72;100.00;52411.16;6227098;23;19908;-65
2022/06/05 04:25:19;;;;;;;;;;;;;;;-140.72;100.00;52433.47;6230586;23;19962;-66
2022/06/05 04:27:45;;;;;;;;;;;;;;;-140.72;100.00;52401.00;6230762;23;19927;-66
2022/06/05 04:30:10;;;;;;;;;;;;;;;-140.72;100.00;52425.34;6228997;23;19916;-66
2022/06/05 04:32:35;;;;;;;;;;;;;;;-140.72;100.00;52437.53;6228968;23;19911;-66
2022/06/05 04:35:01;;;;;;;;;;;;;;;-140.72;100.00;52411.16;6226100;23;19951;-67
2022/06/05 04:37:26;;;;;;;;;;;;;;;-140.72;100.00;52376.66;6228591;23;19912;-68
2022/06/05 04:42:55;;;;;;;;;;;;;;;-140.72;100.00;52403.03;6229116;23;19915;-67
2022/06/05 04:45:20;;;;;;;;;;;;;;;-140.72;100.00;52435.50;6230732;23;19932;-68
2022/06/05 04:47:46;;;;;;;;;;;;;;;-140.72;100.00;52447.69;6231255;23;19908;-67
2022/06/05 04:50:11;;;;;;;;;;;;;;;-140.72;100.00;52437.53;6230114;23;19908;-68
2022/06/05 04:52:36;;;;;;;;;;;;;;;-140.72;100.00;52427.38;6229400;23;19912;-67
2022/06/05 04:55:02;;;;;;;;;;;;;;;-140.72;100.00;52413.19;6227389;23;19916;-66
2022/06/05 04:57:27;;;;;;;;;;;;;;;-140.72;100.00;52386.81;6226425;23;19983;-67
2022/06/05 04:59:54;;;;;;;;;;;;;;;-140.72;100.00;52407.09;6226363;23;19931;-67
2022/06/05 05:02:19;;;;;;;;;;;;;;;-140.72;100.00;52423.31;6225642;23;20284;-66
2022/06/05 05:04:47;;;;;;;;;;;;;;;-140.72;100.00;52413.19;6224941;23;19952;-66
2022/06/05 05:07:13;;;;;;;;;;;;;;;-140.72;100.00;52415.22;6225262;23;19912;-66
2022/06/05 05:09:38;;;;;;;;;;;;;;;-140.72;100.00;52437.53;6227359;23;20293;-66
2022/06/05 05:12:04;;;;;;;;;;;;;;;-140.72;100.00;52435.50;6229706;23;19916;-68
2022/06/05 05:14:29;;;;;;;;;;;;;;;-140.72;100.00;52435.50;6231555;23;19908;-66
2022/06/05 05:19:58;;;;;;;;;;;;;;;-140.72;100.00;52411.16;6233024;23;19930;-68
2022/06/05 05:22:23;;;;;;;;;;;;;;;-140.72;100.00;52455.78;6230910;23;19908;-70
2022/06/05 05:24:49;;;;;;;;;;;;;;;-140.72;100.00;52451.72;6229858;23;19931;-67
2022/06/05 05:27:14;;;;;;;;;;;;;;;-140.72;100.00;52411.16;6225917;23;20280;-68
2022/06/05 05:29:40;;;;;;;;;;;;;;;-140.72;100.00;52443.63;6229068;23;19923;-66
2022/06/05 05:32:06;;;;;;;;;;;;;;;-140.72;100.00;52449.72;6230200;23;19988;-66
2022/06/05 05:34:31;;;;;;;;;;;;;;;-140.72;100.00;52376.66;6229643;23;19979;-68
2022/06/05 05:36:56;;;;;;;;;;;;;;;-140.72;100.00;52423.31;6229694;23;19911;-66
2022/06/05 05:42:06;;;;;;;;;;;;;;;-140.72;100.00;52425.34;6229435;23;19919;-66
2022/06/05 05:44:42;;;;;;;;;;;;;;;-140.72;100.00;52413.19;6229850;23;19923;-66
2022/06/05 05:50:13;;;;;;;;;;;;;;;-140.72;100.00;52411.16;6224183;23;19919;-68
2022/06/05 05:52:38;;;;;;;;;;;;;;;-140.72;100.00;52405.06;6226901;23;19922;-66
2022/06/05 05:55:05;;;;;;;;;;;;;;;-140.72;100.00;52407.09;6228494;23;19956;-67
2022/06/05 05:57:30;;;;;;;;;;;;;;;-140.72;100.00;52398.97;6225644;23;19918;-66
2022/06/05 05:59:55;;;;;;;;;;;;;;;-140.72;100.00;52429.41;6223597;23;19928;-66
2022/06/05 06:02:22;;;;;;;;;;;;;;;-140.72;100.00;52407.09;6225650;23;20332;-66
2022/06/05 06:04:48;;;;;;;;;;;;;;;-140.72;100.00;52425.34;6223830;23;19908;-67
2022/06/05 06:07:14;;;;;;;;;;;;;;;-140.72;100.00;52431.44;6223498;23;19908;-67
2022/06/05 06:09:40;;;;;;;;;;;;;;;-140.72;100.00;52401.00;6222551;23;20290;-66
2022/06/05 06:12:06;;;;;;;;;;;;;;;-140.72;100.00;52427.38;6223652;23;19918;-69
2022/06/05 06:14:33;;;;;;;;;;;;;;;-140.72;100.00;52396.94;6223898;23;19935;-68
2022/06/05 06:16:58;;;;;;;;;;;;;;;-140.72;100.00;52443.63;6227330;23;19919;-68
2022/06/05 06:19:23;;;;;;;;;;;;;;;-140.72;100.00;52386.81;6229935;23;19908;-68
2022/06/05 06:21:48;;;;;;;;;;;;;;;-140.72;100.00;52409.13;6225358;23;19907;-67
2022/06/05 06:24:14;;;;;;;;;;;;;;;-140.72;100.00;52427.38;6226596;23;20010;-66
2022/06/05 06:26:40;;;;;;;;;;;;;;;-140.72;100.00;52437.53;6227008;23;19908;-77
2022/06/05 06:29:05;;;;;;;;;;;;;;;-140.72;100.00;52419.28;6221906;23;19990;-67
2022/06/05 06:31:30;;;;;;;;;;;;;;;-140.72;100.00;52409.13;6226002;23;19923;-68
2022/06/05 06:33:56;;;;;;;;;;;;;;;-140.72;100.00;52421.28;6225120;23;19908;-72
2022/06/05 06:36:21;;;;;;;;;;;;;;;-140.72;100.00;52413.19;6225126;23;19911;-69
2022/06/05 06:38:46;;;;;;;;;;;;;;;-140.72;100.00;52445.66;6225214;23;19984;-68
2022/06/05 06:41:13;;;;;;;;;;;;;;;-140.72;100.00;52439.56;6225190;23;19908;-76
2022/06/05 06:43:39;;;;;;;;;;;;;;;-140.72;100.00;52427.38;6227933;23;19908;-73
2022/06/05 06:46:05;;;;;;;;;;;;;;;-140.72;100.00;52435.50;6236271;23;19974;-80
2022/06/05 06:48:31;;;;;;;;;;;;;;;-140.72;100.00;52447.69;6228169;23;19999;-76
2022/06/05 06:50:57;;;;;;;;;;;;;;;-140.72;100.00;52423.31;6217802;23;19935;-74
2022/06/05 06:53:23;;;;;;;;;;;;;;;-140.72;100.00;52449.72;6221178;23;19915;-74
2022/06/05 06:55:49;;;;;;;;;;;;;;;-140.72;100.00;52409.13;6222031;23;19955;-74
2022/06/05 06:58:14;;;;;;;;;;;;;;;-140.72;100.00;52429.41;6222903;23;19908;-75
2022/06/05 07:00:40;;;;;;;;;;;;;;;-140.72;100.00;52427.38;6221312;23;19948;-74
2022/06/05 07:03:05;;;;;;;;;;;;;;;-140.72;100.00;52407.09;6225083;23;19915;-73
2022/06/05 07:05:31;;;;;;;;;;;;;;;-140.72;100.00;52431.44;6217514;23;19943;-76
2022/06/05 07:07:56;;;;;;;;;;;;;;;-140.72;100.00;52429.41;6218912;23;19931;-76
2022/06/05 07:10:21;;;;;;;;;;;;;;;-140.72;100.00;52407.09;6218452;23;19919;-78
2022/06/05 07:12:47;;;;;;;;;;;;;;;-140.72;100.00;52374.63;6217086;23;19916;-79
2022/06/05 07:15:13;;;;;;;;;;;;;;;-140.72;100.00;52425.34;6221507;23;20245;-78
2022/06/05 07:17:38;;;;;;;;;;;;;;;-140.72;100.00;52382.75;6222084;23;19927;-74
2022/06/05 07:20:04;;;;;;;;;;;;;;;-140.72;100.00;52382.75;6221893;23;19951;-74
2022/06/05 07:22:29;;;;;;;;;;;;;;;-140.72;100.00;52394.91;6221760;23;19908;-74
2022/06/05 07:24:54;;;;;;;;;;;;;;;-140.72;100.00;52384.78;6222465;23;19914;-74
2022/06/05 07:27:19;;;;;;;;;;;;;;;-140.72;100.00;52380.72;6223053;23;19943;-73
2022/06/05 07:29:44;;;;;;;;;;;;;;;-140.72;100.00;52378.69;6221942;23;19935;-74
2022/06/05 07:32:11;;;;;;;;;;;;;;;-140.72;100.00;52423.31;6220948;23;19923;-74
2022/06/05 07:34:36;;;;;;;;;;;;;;;-140.72;100.00;52372.59;6222107;23;19914;-77
2022/06/05 07:37:01;;;;;;;;;;;;;;;-140.72;100.00;52396.94;6221227;23;19927;-75
2022/06/05 07:39:29;;;;;;;;;;;;;;;-140.72;100.00;52388.84;6218735;23;19908;-75
2022/06/05 07:41:54;;;;;;;;;;;;;;;-140.72;100.00;52386.81;6214733;23;19908;-77
2022/06/05 07:44:19;;;;;;;;;;;;;;;-140.72;100.00;52342.16;6216249;23;19934;-74
2022/06/05 07:46:44;;;;;;;;;;;;;;;-140.72;100.00;52388.84;6214973;23;20353;-73
2022/06/05 07:49:10;;;;;;;;;;;;;;;-140.72;100.00;52390.84;6214597;23;19912;-76
2022/06/05 07:54:27;;;;;;;;;;;;;;;-140.72;100.00;52334.03;6217720;23;19962;-75
2022/06/05 07:56:52;;;;;;;;;;;;;;;-140.72;100.00;52313.75;6217103;23;20214;-75
2022/06/05 07:59:17;;;;;;;;;;;;;;;-140.72;100.00;52342.16;6218814;23;19908;-74
2022/06/05 08:01:42;;;;;;;;;;;;;;;-140.72;100.00;52334.03;6217374;23;19908;-72
2022/06/05 08:04:08;;;;;;;;;;;;;;;-140.72;100.00;52346.22;6219557;23;19915;-68
2022/06/05 08:06:34;;;;;;;;;;;;;;;-140.72;100.00;52338.09;6220273;23;19915;-68
2022/06/05 08:08:59;;;;;;;;;;;;;;;-140.72;100.00;52323.91;6222911;23;19986;-68
2022/06/05 08:11:24;;;;;;;;;;;;;;;-140.72;100.00;52277.22;6222731;23;20082;-66
2022/06/05 08:13:50;;;;;;;;;;;;;;;-140.72;100.00;52342.16;6222639;23;19918;-67
2022/06/05 08:16:15;;;;;;;;;;;;;;;-140.72;100.00;52254.91;6221143;23;19908;-68
2022/06/05 08:18:40;;;;;;;;;;;;;;;-140.72;100.00;52289.41;6220913;23;19908;-68
2022/06/05 08:21:06;;;;;;;;;;;;;;;-140.72;100.00;52301.59;6220639;23;20018;-69
2022/06/05 08:23:31;;;;;;;;;;;;;;;-140.72;100.00;52236.66;6221374;23;20345;-68
2022/06/05 08:25:56;;;;;;;;;;;;;;;-140.72;100.00;52222.44;6221352;23;19908;-69
2022/06/05 08:28:24;;;;;;;;;;;;;;;-140.72;100.00;52240.72;6221444;23;19908;-69
2022/06/05 08:30:50;;;;;;;;;;;;;;;-140.72;100.00;52265.06;6218817;23;20356;-66
2022/06/05 08:33:17;;;;;;;;;;;;;;;-140.72;100.00;52244.78;6220078;23;19908;-70
2022/06/05 08:35:44;;;;;;;;;;;;;;;-140.72;100.00;52258.97;6219386;23;19957;-67
2022/06/05 08:41:27;;;;;;;;;;;;;;;-140.72;100.00;52238.69;6220062;23;19977;-67
2022/06/05 08:44:12;;;;;;;;;;;;;;;-140.72;100.00;52222.44;6219615;23;19960;-67
2022/06/05 08:46:43;;;;;;;;;;;;;;;-140.72;100.00;52248.81;6217678;23;19912;-67
2022/06/05 08:49:09;;;;;;;;;;;;;;;-140.72;100.00;52271.16;6220478;23;20328;-67
2022/06/05 08:51:34;;;;;;;;;;;;;;;-140.72;100.00;52252.88;6221729;23;19912;-67
2022/06/05 08:54:26;;;;;;;;;;;;;;;-140.72;100.00;52220.41;6221479;23;19943;-68
2022/06/05 08:57:21;;;;;;;;;;;;;;;-140.72;100.00;52236.66;6217664;23;19908;-67
2022/06/05 08:59:51;;;;;;;;;;;;;;;-140.72;100.00;52216.34;6201699;23;19908;-73
2022/06/05 09:02:26;;;;;;;;;;;;;;;-140.72;100.00;52212.31;6218938;23;19970;-76
2022/06/05 09:04:59;;;;;;;;;;;;;;;-140.72;100.00;52204.19;6217662;23;20349;-78
2022/06/05 09:07:28;;;;;;;;;;;;;;;-140.72;100.00;52171.72;6217116;23;19912;-78
2022/06/05 09:10:00;;;;;;;;;;;;;;;-140.72;100.00;52230.56;6217156;23;19907;-75
2022/06/05 09:12:29;;;;;;;;;;;;;;;-140.72;100.00;52173.75;6216674;23;20364;-78
2022/06/05 09:15:05;;;;;;;;;;;;;;;-140.72;100.00;52175.78;6216719;23;19930;-79
2022/06/05 09:17:30;;;;;;;;;;;;;;;-140.72;100.00;52163.59;6216397;23;19912;-78
2022/06/05 09:19:57;;;;;;;;;;;;;;;-140.72;100.00;52135.19;6217087;23;19915;-77
2022/06/05 09:22:33;;;;;;;;;;;;;;;-140.72;100.00;52167.66;6216957;23;19908;-77
2022/06/05 09:24:58;;;;;;;;;;;;;;;-140.72;100.00;52114.91;6218638;23;19990;-78
2022/06/05 09:27:33;;;;;;;;;;;;;;;-140.72;100.00;52194.03;6218528;23;19931;-79
2022/06/05 09:30:08;;;;;;;;;;;;;;;-140.72;100.00;52194.03;6216443;23;19907;-77
2022/06/05 09:32:52;;;;;;;;;;;;;;;-140.72;100.00;52173.75;6216396;23;19915;-77
2022/06/05 09:35:20;;;;;;;;;;;;;;;-140.72;100.00;52204.19;6217566;23;20011;-81
2022/06/05 09:38:00;;;;;;;;;;;;;;;-140.72;100.00;52175.78;6216709;23;20258;-77
2022/06/05 09:40:25;;;;;;;;;;;;;;;-140.72;100.00;52163.59;6218132;23;19915;-81
2022/06/05 09:42:51;;;;;;;;;;;;;;;-140.72;100.00;52204.19;6216688;23;19908;-76
2022/06/05 09:45:29;;;;;;;;;;;;;;;-140.72;100.00;52187.97;6216285;23;19915;-75
2022/06/05 09:48:02;;;;;;;;;;;;;;;-140.72;100.00;52189.97;6219475;23;19946;-76
2022/06/05 09:50:29;;;;;;;;;;;;;;;-140.72;100.00;52210.28;6221871;23;19908;-83
2022/06/05 09:52:55;;;;;;;;;;;;;;;-140.72;100.00;52202.16;6222905;23;19923;-78
2022/06/05 09:55:28;;;;;;;;;;;;;;;-140.72;100.00;52212.31;6226743;23;20408;-78
2022/06/05 09:58:24;;;;;;;;;;;;;;;-140.72;100.00;52194.03;6225965;23;19908;-78
2022/06/05 10:00:51;;;;;;;;;;;;;;;-140.72;100.00;52224.47;6215940;23;20384;-78
2022/06/05 10:03:35;;;;;;;;;;;;;;;-140.72;100.00;52218.38;6216825;23;20322;-76
2022/06/05 10:06:11;;;;;;;;;;;;;;;-140.72;100.00;52222.44;6220955;23;19919;-76
2022/06/05 10:08:42;;;;;;;;;;;;;;;-140.72;100.00;52204.19;6217217;23;19907;-75
2022/06/05 10:11:19;;;;;;;;;;;;;;;-140.72;100.00;52240.72;6221437;23;19915;-74
2022/06/05 10:13:57;;;;;;;;;;;;;;;-140.72;100.00;52212.31;6225395;23;19908;-74
2022/06/05 10:16:45;;;;;;;;;;;;;;;-140.72;100.00;52261.00;6221551;23;19908;-73
2022/06/05 10:19:10;;;;;;;;;;;;;;;-140.72;100.00;52216.34;6223152;23;20350;-72
2022/06/05 10:21:37;;;;;;;;;;;;;;;-140.72;100.00;52232.59;6225527;23;19934;-73
2022/06/05 10:24:03;;;;;;;;;;;;;;;-140.72;100.00;52226.50;6202625;23;19944;-74
2022/06/05 10:26:36;;;;;;;;;;;;;;;-140.72;100.00;52220.41;6219956;23;19915;-74
2022/06/05 10:29:11;;;;;;;;;;;;;;;-140.72;100.00;52220.41;6220112;23;19987;-75
2022/06/05 10:31:39;;;;;;;;;;;;;;;-140.72;100.00;52234.63;6222307;23;20166;-76
2022/06/05 10:34:15;;;;;;;;;;;;;;;-140.72;100.00;52232.59;6217561;23;19915;-75
2022/06/05 10:36:46;;;;;;;;;;;;;;;-140.72;100.00;52244.78;6222412;23;19995;-76
2022/06/05 10:39:18;;;;;;;;;;;;;;;-140.72;100.00;52238.69;6219812;23;19915;-76
2022/06/05 10:41:44;;;;;;;;;;;;;;;-140.72;100.00;52214.34;6222529;23;19908;-76
2022/06/05 10:44:22;;;;;;;;;;;;;;;-140.72;100.00;52246.78;6224489;23;19947;-74
2022/06/05 10:47:06;;;;;;;;;;;;;;;-140.72;100.00;52240.72;6225931;23;19908;-76
2022/06/05 10:49:34;;;;;;;;;;;;;;;-140.72;100.00;52258.97;6222335;23;20365;-77
2022/06/05 10:52:18;;;;;;;;;;;;;;;-140.72;100.00;52252.88;6222321;23;19912;-75
2022/06/05 10:54:44;;;;;;;;;;;;;;;-140.72;100.00;52232.59;6222322;23;19923;-75
2022/06/05 10:57:09;;;;;;;;;;;;;;;-140.72;100.00;52236.66;6222836;23;19908;-75
2022/06/05 10:59:50;;;;;;;;;;;;;;;-140.72;100.00;52242.75;6218228;23;19915;-74
2022/06/05 11:02:35;;;;;;;;;;;;;;;-140.72;100.00;52261.00;6220455;23;19908;-79
2022/06/05 11:05:11;;;;;;;;;;;;;;;-140.72;100.00;52254.91;6230975;23;19912;-77
2022/06/05 11:20:46;;;;;;;;;;;;;;;-140.72;100.00;52246.78;6265714;22;19959;-81
2022/06/05 11:23:24;;;;;;;;;;;;;;;-140.72;100.00;52285.34;6271991;22;19994;-78
2022/06/05 11:26:11;;;;;;;;;;;;;;;-140.72;100.00;52277.22;6271741;22;19911;-80
2022/06/05 11:28:55;;;;;;;;;;;;;;;-140.72;100.00;52291.44;6272047;22;19967;-78
2022/06/05 11:33:58;;;;;;;;;;;;;;;-140.72;100.00;52279.25;6274572;22;19995;-75
2022/06/05 11:36:26;;;;;;;;;;;;;;;-140.72;100.00;52281.28;6218595;23;19978;-77
2022/06/05 11:39:10;;;;;;;;;;;;;;;-140.72;100.00;52293.47;6219370;23;19949;-77
2022/06/05 11:41:42;;;;;;;;;;;;;;;-140.72;100.00;52313.75;6218905;23;19928;-77
2022/06/05 11:44:18;;;;;;;;;;;;;;;-140.72;100.00;52332.03;6218500;23;19912;-78
2022/06/05 11:46:49;;;;;;;;;;;;;;;-140.72;100.00;52307.66;6246465;23;20329;-77
2022/06/05 11:49:20;;;;;;;;;;;;;;;-140.72;100.00;52303.59;6246499;23;19911;-78
2022/06/05 11:51:46;;;;;;;;;;;;;;;-140.72;100.00;52325.94;6246435;23;20241;-77
2022/06/05 11:54:17;;;;;;;;;;;;;;;-140.72;100.00;52313.75;6219278;23;19934;-78
2022/06/05 11:56:59;;;;;;;;;;;;;;;-140.72;100.00;52307.66;6219634;23;20281;-76
2022/06/05 11:59:33;;;;;;;;;;;;;;;-140.72;100.00;52325.94;6219135;23;19915;-76
2022/06/05 12:02:07;;;;;;;;;;;;;;;-140.72;100.00;52346.22;6219686;23;19958;-78
2022/06/05 12:04:53;;;;;;;;;;;;;;;-140.72;100.00;52342.16;6219636;23;19970;-77
2022/06/05 12:07:19;;;;;;;;;;;;;;;-140.72;100.00;52344.19;6246082;23;19911;-78
2022/06/05 12:09:49;;;;;;;;;;;;;;;-140.72;100.00;52354.34;6219894;23;19990;-77
2022/06/05 12:12:20;;;;;;;;;;;;;;;-140.72;100.00;52368.53;6220035;23;19942;-77
2022/06/05 12:14:53;;;;;;;;;;;;;;;-140.72;100.00;52338.09;6219028;23;19994;-77
2022/06/05 12:17:21;;;;;;;;;;;;;;;-140.72;100.00;52309.69;6245526;23;19915;-78
2022/06/05 12:20:02;;;;;;;;;;;;;;;-140.72;100.00;52315.78;6245234;23;19965;-78
2022/06/05 12:22:30;;;;;;;;;;;;;;;-140.72;100.00;52372.59;6245118;23;19918;-77
2022/06/05 12:25:05;;;;;;;;;;;;;;;-140.72;100.00;52330.00;6218799;23;19938;-77
2022/06/05 12:27:50;;;;;;;;;;;;;;;-140.72;100.00;52327.97;6245893;23;19994;-76
2022/06/05 12:30:23;;;;;;;;;;;;;;;-140.72;100.00;52315.78;6245410;23;19915;-77
2022/06/05 12:33:03;;;;;;;;;;;;;;;-140.72;100.00;52358.41;6224289;23;19915;-77
2022/06/05 12:35:36;;;;;;;;;;;;;;;-140.72;100.00;52330.00;6221700;23;19916;-77
2022/06/05 12:38:11;;;;;;;;;;;;;;;-140.72;100.00;52386.81;6220573;23;19935;-80
2022/06/05 12:40:38;;;;;;;;;;;;;;;-140.72;100.00;52386.81;6223114;23;19923;-78
2022/06/05 12:43:06;;;;;;;;;;;;;;;-140.72;100.00;52362.44;6248539;23;19917;-79
2022/06/05 12:45:32;;;;;;;;;;;;;;;-140.72;100.00;52321.88;6220965;23;20234;-76
2022/06/05 12:48:16;;;;;;;;;;;;;;;-140.72;100.00;52348.25;6220887;23;19919;-78
2022/06/05 12:50:45;;;;;;;;;;;;;;;-140.72;100.00;52350.28;6221530;23;19919;-76
2022/06/05 12:53:14;;;;;;;;;;;;;;;-140.72;100.00;52382.75;6221901;23;19937;-74
2022/06/05 12:55:45;;;;;;;;;;;;;;;-140.72;100.00;52350.28;6247841;23;20252;-74
2022/06/05 12:58:10;;;;;;;;;;;;;;;-140.72;100.00;52374.63;6249405;23;19912;-74
2022/06/05 13:00:48;;;;;;;;;;;;;;;-140.72;100.00;52409.13;6220644;23;19923;-73
2022/06/05 13:03:32;;;;;;;;;;;;;;;-140.72;100.00;52411.16;6222187;23;19915;-74
2022/06/05 13:05:57;;;;;;;;;;;;;;;-140.72;100.00;52362.44;6222263;23;19912;-74
2022/06/05 13:08:41;;;;;;;;;;;;;;;-140.72;100.00;52374.63;6225793;23;19958;-72
2022/06/05 13:11:06;;;;;;;;;;;;;;;-140.72;100.00;52384.78;6226878;23;19942;-77
2022/06/05 13:13:50;;;;;;;;;;;;;;;-140.72;100.00;52366.50;6253513;23;19911;-84
2022/06/05 13:16:36;;;;;;;;;;;;;;;-140.72;100.00;52376.66;6244357;23;19919;-74
2022/06/05 13:19:26;;;;;;;;;;;;;;;-140.72;100.00;52370.56;6268555;22;19916;-79
2022/06/05 13:22:11;;;;;;;;;;;;;;;-140.72;100.00;52362.44;6228398;23;19978;-78
2022/06/05 13:24:45;;;;;;;;;;;;;;;-140.72;100.00;52382.75;6225438;23;19968;-76